Time;durP1;ratioP1;P1;durP2;ratioP2;P2;SDS_P1;SDS_P2;PMS_P1;PMS_P2;Temp;Humidity;BMP_temperature;BMP_pressure;BME280_temperature;BME280_humidity;BME280_pressure;Samples;Min_cycle;Max_cycle;Signal;HPM_P1;HPM_P2
2020/12/26 00:02:12;;;;;;;1999.90;999.90;;;;;;;2.19;77.73;98444.75;5031370;28;20049;-67
2020/12/26 00:04:38;;;;;;;1999.90;999.90;;;;;;;2.55;77.40;98442.09;5032439;28;20068;-66
2020/12/26 00:07:04;;;;;;;1999.90;999.90;;;;;;;2.79;75.93;98447.84;5029987;28;20353;-67
2020/12/26 00:09:31;;;;;;;1999.90;999.90;;;;;;;2.28;77.52;98447.78;5031827;28;20505;-67
2020/12/26 00:11:57;;;;;;;1999.90;999.90;;;;;;;2.30;77.77;98459.25;5036366;28;20094;-67
2020/12/26 00:14:29;;;;;;;1999.90;999.90;;;;;;;2.26;77.77;98466.31;5033683;28;20053;-67
2020/12/26 00:16:56;;;;;;;1999.90;999.90;;;;;;;2.03;78.21;98460.25;5046411;28;20057;-66
2020/12/26 00:19:23;;;;;;;1999.90;999.90;;;;;;;1.98;79.31;98460.25;5038051;28;20052;-67
2020/12/26 00:21:50;;;;;;;1999.90;999.90;;;;;;;2.41;77.80;98457.34;5069118;28;20097;-67
2020/12/26 00:24:17;;;;;;;1999.90;999.90;;;;;;;1.89;78.89;98451.75;5063088;28;20056;-67
2020/12/26 00:26:43;;;;;;;1999.90;999.90;;;;;;;1.60;80.60;98445.88;5049101;28;20052;-67
2020/12/26 00:29:09;;;;;;;1999.90;999.90;;;;;;;1.95;80.12;98449.88;5055908;28;20551;-67
2020/12/26 00:31:36;;;;;;;1999.90;999.90;;;;;;;1.86;80.47;98451.44;5054557;28;20044;-67
2020/12/26 00:34:03;;;;;;;1999.90;999.90;;;;;;;1.80;81.39;98460.69;5051541;28;20076;-67
2020/12/26 00:36:29;;;;;;;1999.90;999.90;;;;;;;2.22;79.38;98457.88;5055406;28;20060;-67
2020/12/26 00:38:55;;;;;;;1999.90;999.90;;;;;;;1.92;79.49;98464.00;5053946;28;20071;-67
2020/12/26 00:41:21;;;;;;;1999.90;999.90;;;;;;;1.50;81.53;98457.53;5057060;28;20373;-67
2020/12/26 00:43:48;;;;;;;1999.90;999.90;;;;;;;1.93;81.54;98460.22;5056862;28;20051;-66
2020/12/26 00:46:14;;;;;;;1999.90;999.90;;;;;;;1.53;82.13;98462.47;5067772;28;20045;-67
2020/12/26 00:48:41;;;;;;;1999.90;999.90;;;;;;;1.75;82.21;98461.50;5051833;28;20045;-67
2020/12/26 00:51:10;;;;;;;1999.90;999.90;;;;;;;1.91;81.56;98463.19;5050947;28;20136;-65
2020/12/26 00:53:36;;;;;;;1999.90;999.90;;;;;;;1.83;81.79;98462.88;5050833;28;20048;-66
2020/12/26 00:56:02;;;;;;;1999.90;999.90;;;;;;;2.06;81.98;98467.09;5054595;28;20449;-66
2020/12/26 00:58:28;;;;;;;1999.90;999.90;;;;;;;1.52;84.10;98469.00;5053068;28;20074;-66
2020/12/26 01:00:54;;;;;;;1999.90;999.90;;;;;;;1.67;84.16;98465.53;5062309;28;20044;-66
2020/12/26 01:03:20;;;;;;;1999.90;999.90;;;;;;;1.83;84.38;98474.63;5058928;28;20076;-66
2020/12/26 01:05:47;;;;;;;1999.90;999.90;;;;;;;1.54;86.08;98466.03;5050722;28;20110;-66
2020/12/26 01:08:13;;;;;;;1999.90;999.90;;;;;;;1.52;86.77;98468.16;5051675;28;20048;-66
2020/12/26 01:10:39;;;;;;;1999.90;999.90;;;;;;;2.17;85.15;98465.22;5049493;28;20090;-67
2020/12/26 01:13:05;;;;;;;1999.90;999.90;;;;;;;1.69;85.17;98463.38;5051785;28;20056;-66
2020/12/26 01:15:31;;;;;;;1999.90;999.90;;;;;;;2.10;85.45;98469.00;5044709;28;20353;-66
2020/12/26 01:17:57;;;;;;;1999.90;999.90;;;;;;;1.80;85.72;98466.94;5047653;28;20061;-66
2020/12/26 01:20:23;;;;;;;1999.90;999.90;;;;;;;1.74;86.27;98466.13;5059511;28;20052;-66
2020/12/26 01:22:49;;;;;;;1999.90;999.90;;;;;;;2.03;85.76;98457.53;5054893;28;20532;-66
2020/12/26 01:25:15;;;;;;;1999.90;999.90;;;;;;;2.37;84.76;98459.81;5058901;28;20142;-66
2020/12/26 01:27:41;;;;;;;1999.90;999.90;;;;;;;2.60;83.11;98460.41;5054137;28;20044;-66
2020/12/26 01:30:48;;;;;;;1999.90;999.90;;;;;;;2.58;83.85;98462.59;5053238;28;20114;-66
2020/12/26 01:33:15;;;;;;;1999.90;999.90;;;;;;;2.67;82.60;98466.41;5057318;28;20280;-66
2020/12/26 01:35:41;;;;;;;1999.90;999.90;;;;;;;2.99;82.22;98462.59;5053209;28;20441;-66
2020/12/26 01:38:07;;;;;;;1999.90;999.90;;;;;;;2.88;81.93;98469.19;5052447;28;20048;-66
2020/12/26 01:40:33;;;;;;;1999.90;999.90;;;;;;;2.65;82.77;98465.88;5056461;28;20048;-66
2020/12/26 01:43:00;;;;;;;1999.90;999.90;;;;;;;2.51;83.31;98471.03;5059456;28;20208;-66
2020/12/26 01:45:26;;;;;;;1999.90;999.90;;;;;;;2.11;84.16;98465.19;5059782;28;20071;-66
2020/12/26 01:47:53;;;;;;;1999.90;999.90;;;;;;;2.32;84.22;98470.69;5053199;28;20049;-66
2020/12/26 01:50:19;;;;;;;1999.90;999.90;;;;;;;2.40;83.78;98464.72;5054337;28;20045;-66
2020/12/26 01:52:47;;;;;;;1999.90;999.90;;;;;;;2.37;84.29;98457.09;5059768;28;20048;-66
2020/12/26 01:55:15;;;;;;;1999.90;999.90;;;;;;;2.79;82.79;98469.69;5054089;28;20040;-66
2020/12/26 01:57:50;;;;;;;1999.90;999.90;;;;;;;2.18;84.24;98464.13;5049729;28;20060;-66
2020/12/26 02:00:16;;;;;;;1999.90;999.90;;;;;;;2.28;84.36;98464.16;5073785;28;20045;-66
2020/12/26 02:02:43;;;;;;;1999.90;999.90;;;;;;;2.37;83.60;98456.28;5049605;28;20048;-66
2020/12/26 02:05:09;;;;;;;1999.90;999.90;;;;;;;2.72;82.58;98457.41;5057258;28;20106;-66
2020/12/26 02:07:36;;;;;;;1999.90;999.90;;;;;;;2.58;83.21;98463.41;5059994;28;20486;-66
2020/12/26 02:10:02;;;;;;;1999.90;999.90;;;;;;;2.17;84.06;98462.47;5067180;28;20049;-67
2020/12/26 02:12:30;;;;;;;1999.90;999.90;;;;;;;2.38;84.54;98468.81;5054965;28;20079;-67
2020/12/26 02:14:56;;;;;;;1999.90;999.90;;;;;;;2.59;83.54;98465.06;5051049;28;20571;-67
2020/12/26 02:17:26;;;;;;;1999.90;999.90;;;;;;;2.72;83.31;98460.94;5055913;28;20094;-67
2020/12/26 02:19:53;;;;;;;1999.90;999.90;;;;;;;2.99;81.92;98462.59;5054790;28;20106;-67
2020/12/26 02:22:19;;;;;;;1999.90;999.90;;;;;;;2.97;81.46;98464.81;5061506;28;20040;-67
2020/12/26 02:24:45;;;;;;;1999.90;999.90;;;;;;;2.86;81.36;98461.25;5061221;28;20099;-65
2020/12/26 02:27:11;;;;;;;1999.90;999.90;;;;;;;2.73;82.40;98462.59;5061939;28;20361;-65
2020/12/26 02:29:38;;;;;;;1999.90;999.90;;;;;;;2.79;82.04;98469.69;5065414;28;20059;-66
2020/12/26 02:32:04;;;;;;;1999.90;999.90;;;;;;;2.75;81.66;98454.94;5058767;28;20117;-66
2020/12/26 02:34:33;;;;;;;1999.90;999.90;;;;;;;2.72;81.56;98460.13;5064395;28;20045;-66
2020/12/26 02:36:59;;;;;;;1999.90;999.90;;;;;;;2.74;82.22;98469.72;5064478;28;20422;-66
2020/12/26 02:39:25;;;;;;;1999.90;999.90;;;;;;;2.50;82.16;98461.22;5059072;28;20053;-65
2020/12/26 02:41:52;;;;;;;1999.90;999.90;;;;;;;2.66;82.28;98462.03;5064418;28;20114;-66
2020/12/26 02:44:18;;;;;;;1999.90;999.90;;;;;;;2.62;81.94;98458.22;5057097;28;20056;-66
2020/12/26 02:46:48;;;;;;;1999.90;999.90;;;;;;;2.73;81.58;98459.88;5061796;28;20044;-66
2020/12/26 02:49:15;;;;;;;1999.90;999.90;;;;;;;2.27;82.84;98457.88;5057489;28;20049;-66
2020/12/26 02:51:41;;;;;;;1999.90;999.90;;;;;;;2.46;82.70;98454.66;5058137;28;20316;-65
2020/12/26 02:54:11;;;;;;;1999.90;999.90;;;;;;;2.92;81.64;98451.97;5055173;28;20477;-66
2020/12/26 02:56:41;;;;;;;1999.90;999.90;;;;;;;2.77;81.40;98458.25;5051440;28;20080;-66
2020/12/26 02:59:08;;;;;;;1999.90;999.90;;;;;;;3.12;79.97;98462.06;5051455;28;20050;-66
2020/12/26 03:01:40;;;;;;;1999.90;999.90;;;;;;;3.06;79.65;98452.22;5051538;28;20080;-65
2020/12/26 03:04:07;;;;;;;1999.90;999.90;;;;;;;2.66;80.57;98458.50;5059683;28;20045;-66
2020/12/26 03:06:33;;;;;;;1999.90;999.90;;;;;;;2.80;81.20;98457.69;5052759;28;20101;-66
2020/12/26 03:09:00;;;;;;;1999.90;999.90;;;;;;;2.03;82.94;98454.78;5055606;28;20060;-65
2020/12/26 03:11:26;;;;;;;1999.90;999.90;;;;;;;2.43;82.70;98455.19;5064830;28;20115;-66
2020/12/26 03:13:52;;;;;;;1999.90;999.90;;;;;;;2.77;81.32;98460.13;5054473;28;20632;-66
2020/12/26 03:16:18;;;;;;;1999.90;999.90;;;;;;;2.64;80.73;98456.84;5057407;28;20049;-66
2020/12/26 03:18:45;;;;;;;1999.90;999.90;;;;;;;2.72;80.57;98463.69;5063970;28;20052;-66
2020/12/26 03:21:14;;;;;;;1999.90;999.90;;;;;;;2.33;80.53;98466.91;5058176;28;20051;-66
2020/12/26 03:23:40;;;;;;;1999.90;999.90;;;;;;;2.33;80.89;98477.81;5062536;28;20625;-65
2020/12/26 03:26:06;;;;;;;1999.90;999.90;;;;;;;2.19;80.89;98477.50;5053959;28;20313;-66
2020/12/26 03:28:33;;;;;;;1999.90;999.90;;;;;;;1.72;80.18;98479.19;5059831;28;20080;-65
2020/12/26 03:30:59;;;;;;;1999.90;999.90;;;;;;;2.03;80.63;98479.34;5060308;28;20451;-65
2020/12/26 03:33:26;;;;;;;1999.90;999.90;;;;;;;2.08;78.82;98484.00;5066705;28;20056;-65
2020/12/26 03:35:52;;;;;;;1999.90;999.90;;;;;;;1.91;80.28;98493.19;5067582;28;20044;-65
2020/12/26 03:38:18;;;;;;;1999.90;999.90;;;;;;;1.55;79.62;98486.75;5055385;28;20558;-65
2020/12/26 03:40:44;;;;;;;1999.90;999.90;;;;;;;1.55;80.66;98494.94;5060044;28;20490;-65
2020/12/26 03:43:10;;;;;;;1999.90;999.90;;;;;;;1.64;79.45;98495.22;5059820;28;20271;-65
2020/12/26 03:45:36;;;;;;;1999.90;999.90;;;;;;;2.09;78.35;98497.38;5050421;28;20057;-65
2020/12/26 03:48:02;;;;;;;1999.90;999.90;;;;;;;1.80;79.10;98494.22;5053829;28;20044;-65
2020/12/26 03:50:28;;;;;;;1999.90;999.90;;;;;;;2.09;77.88;98496.56;5059975;28;20049;-65
2020/12/26 03:52:58;;;;;;;1999.90;999.90;;;;;;;1.79;77.84;98505.41;5052498;28;20060;-65
2020/12/26 03:55:24;;;;;;;1999.90;999.90;;;;;;;1.99;78.22;98505.50;5059462;28;20041;-66
2020/12/26 03:57:50;;;;;;;1999.90;999.90;;;;;;;2.26;77.20;98515.44;5056272;28;20045;-65
2020/12/26 04:00:16;;;;;;;1999.90;999.90;;;;;;;2.19;77.68;98504.78;5052459;28;20108;-65
2020/12/26 04:02:42;;;;;;;1999.90;999.90;;;;;;;2.30;76.90;98516.56;5051912;28;20068;-66
2020/12/26 04:05:08;;;;;;;1999.90;999.90;;;;;;;2.03;77.79;98514.81;5050524;28;20063;-66
2020/12/26 04:07:34;;;;;;;1999.90;999.90;;;;;;;2.41;77.02;98520.97;5056338;28;20053;-65
2020/12/26 04:10:00;;;;;;;1999.90;999.90;;;;;;;2.54;76.81;98518.81;5053139;28;20057;-65
2020/12/26 04:12:26;;;;;;;1999.90;999.90;;;;;;;2.58;76.09;98511.75;5051674;28;20072;-66
2020/12/26 04:14:52;;;;;;;1999.90;999.90;;;;;;;2.25;77.10;98511.09;5050773;28;20088;-66
2020/12/26 04:17:22;;;;;;;1999.90;999.90;;;;;;;2.39;76.54;98514.94;5049663;28;20479;-66
2020/12/26 04:19:49;;;;;;;1999.90;999.90;;;;;;;2.45;76.80;98523.97;5050527;28;20052;-66
2020/12/26 04:22:15;;;;;;;1999.90;999.90;;;;;;;2.79;75.62;98518.06;5034394;28;20441;-66
2020/12/26 04:24:42;;;;;;;1999.90;999.90;;;;;;;2.87;74.91;98516.69;5027875;28;20072;-66
2020/12/26 04:27:08;;;;;;;1999.90;999.90;;;;;;;2.93;74.93;98519.19;5029549;28;20049;-65
2020/12/26 04:29:34;;;;;;;1999.90;999.90;;;;;;;2.79;75.26;98518.06;5032291;28;20081;-66
2020/12/26 04:32:00;;;;;;;1999.90;999.90;;;;;;;2.54;75.89;98527.81;5035537;28;20362;-65
2020/12/26 04:34:26;;;;;;;1999.90;999.90;;;;;;;2.33;75.92;98524.22;5031260;28;20398;-66
2020/12/26 04:36:52;;;;;;;1999.90;999.90;;;;;;;2.50;75.84;98520.44;5031073;28;20418;-65
2020/12/26 04:39:18;;;;;;;1999.90;999.90;;;;;;;2.44;76.34;98528.63;5032877;28;20057;-65
2020/12/26 04:41:44;;;;;;;1999.90;999.90;;;;;;;2.62;75.66;98521.00;5033327;28;20410;-66
2020/12/26 04:44:14;;;;;;;1999.90;999.90;;;;;;;2.74;75.57;98526.22;5028448;28;20377;-65
2020/12/26 04:46:42;;;;;;;1999.90;999.90;;;;;;;2.15;76.45;98525.50;5031497;28;20514;-66
2020/12/26 04:49:10;;;;;;;1999.90;999.90;;;;;;;2.22;76.96;98523.34;5033926;28;20062;-66
2020/12/26 04:51:41;;;;;;;1999.90;999.90;;;;;;;2.54;76.00;98530.53;5036597;28;20052;-66
2020/12/26 04:54:09;;;;;;;1999.90;999.90;;;;;;;1.94;77.62;98530.03;5035915;28;20080;-66
2020/12/26 04:56:41;;;;;;;1999.90;999.90;;;;;;;2.23;77.21;98521.44;5035088;28;20411;-66
2020/12/26 04:59:09;;;;;;;1999.90;999.90;;;;;;;2.32;77.38;98524.47;5040625;28;20045;-66
2020/12/26 05:01:37;;;;;;;1999.90;999.90;;;;;;;2.67;75.88;98533.88;5032065;28;20103;-66
2020/12/26 05:04:04;;;;;;;1999.90;999.90;;;;;;;2.63;75.79;98530.84;5039772;28;20044;-66
2020/12/26 05:06:31;;;;;;;1999.90;999.90;;;;;;;2.95;74.57;98529.84;5036282;28;20183;-66
2020/12/26 05:08:58;;;;;;;1999.90;999.90;;;;;;;2.74;75.01;98531.69;5033566;28;20042;-66
2020/12/26 05:11:24;;;;;;;1999.90;999.90;;;;;;;2.87;74.84;98535.81;5034055;28;20478;-66
2020/12/26 05:13:50;;;;;;;1999.90;999.90;;;;;;;2.90;73.93;98546.19;5040329;28;20074;-66
2020/12/26 05:16:16;;;;;;;1999.90;999.90;;;;;;;2.55;74.90;98550.50;5035640;28;20103;-66
2020/12/26 05:18:42;;;;;;;1999.90;999.90;;;;;;;2.60;75.65;98553.22;5041884;28;20052;-66
2020/12/26 05:21:09;;;;;;;1999.90;999.90;;;;;;;2.15;76.04;98549.25;5052161;28;20041;-66
2020/12/26 05:23:37;;;;;;;1999.90;999.90;;;;;;;2.57;75.93;98546.38;5057919;28;20052;-66
2020/12/26 05:26:09;;;;;;;1999.90;999.90;;;;;;;2.77;75.01;98553.84;5058872;28;20044;-66
2020/12/26 05:28:37;;;;;;;1999.90;999.90;;;;;;;2.71;74.85;98559.53;5057798;28;20055;-66
2020/12/26 05:31:07;;;;;;;1999.90;999.90;;;;;;;2.85;75.64;98568.06;5055513;28;20489;-66
2020/12/26 05:33:34;;;;;;;1999.90;999.90;;;;;;;2.53;75.02;98563.56;5061607;28;20064;-66
2020/12/26 05:36:04;;;;;;;1999.90;999.90;;;;;;;2.13;77.00;98573.22;5052406;28;20052;-66
2020/12/26 05:38:31;;;;;;;1999.90;999.90;;;;;;;2.26;76.33;98570.03;5053517;28;20468;-66
2020/12/26 05:41:00;;;;;;;1999.90;999.90;;;;;;;2.23;77.22;98573.28;5061460;28;20504;-66
2020/12/26 05:43:31;;;;;;;1999.90;999.90;;;;;;;2.53;76.32;98577.22;5051864;28;20141;-66
2020/12/26 05:45:58;;;;;;;1999.90;999.90;;;;;;;2.70;75.59;98579.75;5051194;28;20052;-66
2020/12/26 05:48:27;;;;;;;1999.90;999.90;;;;;;;2.11;77.07;98584.41;5056547;28;20048;-66
2020/12/26 05:51:01;;;;;;;1999.90;999.90;;;;;;;2.68;76.19;98577.31;5060282;28;20512;-66
2020/12/26 05:53:28;;;;;;;1999.90;999.90;;;;;;;2.70;75.76;98585.22;5055938;28;20048;-67
2020/12/26 05:55:55;;;;;;;1999.90;999.90;;;;;;;2.78;75.87;98588.25;5056108;28;20102;-67
2020/12/26 05:58:25;;;;;;;1999.90;999.90;;;;;;;2.59;75.71;98585.19;5059538;28;20057;-67
2020/12/26 06:00:55;;;;;;;1999.90;999.90;;;;;;;2.76;75.47;98598.63;5051620;28;20049;-67
2020/12/26 06:03:29;;;;;;;1999.90;999.90;;;;;;;2.43;76.96;98591.69;5052789;28;20045;-67
2020/12/26 06:05:58;;;;;;;1999.90;999.90;;;;;;;2.28;76.96;98600.63;5047595;28;20052;-66
2020/12/26 06:08:25;;;;;;;1999.90;999.90;;;;;;;2.27;77.52;98597.03;5050220;28;20057;-69
2020/12/26 06:10:56;;;;;;;1999.90;999.90;;;;;;;2.45;77.22;98606.69;5053219;28;20049;-66
2020/12/26 06:13:24;;;;;;;1999.90;999.90;;;;;;;2.44;77.19;98606.94;5057969;28;20048;-67
2020/12/26 06:15:51;;;;;;;1999.90;999.90;;;;;;;2.66;76.46;98611.41;5053718;28;20048;-66
2020/12/26 06:18:19;;;;;;;1999.90;999.90;;;;;;;2.44;77.64;98621.44;5054993;28;20056;-67
2020/12/26 06:20:47;;;;;;;1999.90;999.90;;;;;;;2.62;77.53;98616.56;5057711;28;20056;-67
2020/12/26 06:23:24;;;;;;;1999.90;999.90;;;;;;;2.50;77.93;98624.19;5054106;28;20048;-67
2020/12/26 06:25:52;;;;;;;1999.90;999.90;;;;;;;2.17;80.36;98623.47;5054821;28;20048;-66
2020/12/26 06:28:29;;;;;;;1999.90;999.90;;;;;;;1.88;82.56;98630.09;5048629;28;20053;-67
2020/12/26 06:30:58;;;;;;;1999.90;999.90;;;;;;;1.38;85.37;98639.50;5054170;28;20037;-67
2020/12/26 06:33:26;;;;;;;1999.90;999.90;;;;;;;1.70;85.93;98642.25;5050966;28;20586;-67
2020/12/26 06:35:57;;;;;;;1999.90;999.90;;;;;;;2.43;82.94;98640.81;5050825;28;20048;-67
2020/12/26 06:38:27;;;;;;;1999.90;999.90;;;;;;;2.35;83.12;98641.28;5050673;28;20061;-67
2020/12/26 06:40:57;;;;;;;1999.90;999.90;;;;;;;2.80;81.77;98640.69;5057177;28;20064;-67
2020/12/26 06:43:56;;;;;;;1999.90;999.90;;;;;;;2.56;81.29;98642.22;5049303;28;20053;-66
2020/12/26 06:46:22;;;;;;;1999.90;999.90;;;;;;;2.63;81.74;98646.38;5044399;28;20123;-68
2020/12/26 06:48:52;;;;;;;1999.90;999.90;;;;;;;2.49;81.78;98649.81;5053967;28;20059;-67
2020/12/26 06:51:21;;;;;;;1999.90;999.90;;;;;;;2.52;82.26;98649.31;5053513;28;20453;-67
2020/12/26 06:53:47;;;;;;;1999.90;999.90;;;;;;;2.77;81.93;98665.81;5052877;28;20052;-67
2020/12/26 06:56:32;;;;;;;1999.90;999.90;;;;;;;2.57;82.54;98660.25;5038948;28;20071;-67
2020/12/26 06:59:05;;;;;;;1999.90;999.90;;;;;;;2.24;83.49;98663.06;5042708;28;20527;-67
2020/12/26 07:01:33;;;;;;;1999.90;999.90;;;;;;;1.87;85.51;98668.53;5052843;28;20501;-67
2020/12/26 07:04:11;;;;;;;1999.90;999.90;;;;;;;1.73;86.37;98668.97;5055886;28;20049;-67
2020/12/26 07:06:37;;;;;;;1999.90;999.90;;;;;;;2.31;84.84;98672.94;5059144;28;20041;-67
2020/12/26 07:09:04;;;;;;;1999.90;999.90;;;;;;;2.56;83.31;98661.31;5055186;28;20048;-66
2020/12/26 07:11:31;;;;;;;1999.90;999.90;;;;;;;2.25;84.06;98664.72;5045656;28;20063;-66
2020/12/26 07:13:57;;;;;;;1999.90;999.90;;;;;;;1.95;84.91;98662.63;5062898;28;20049;-67
2020/12/26 07:16:41;;;;;;;1999.90;999.90;;;;;;;1.65;85.86;98661.25;5049741;28;20174;-67
2020/12/26 07:19:20;;;;;;;1999.90;999.90;;;;;;;1.69;87.52;98675.22;5063986;28;20071;-67
2020/12/26 07:21:48;;;;;;;1999.90;999.90;;;;;;;1.54;87.69;98678.63;5065232;28;20049;-67
2020/12/26 07:24:21;;;;;;;1999.90;999.90;;;;;;;1.59;87.29;98662.31;5061632;28;20074;-66
2020/12/26 07:26:47;;;;;;;1999.90;999.90;;;;;;;2.07;85.78;98671.44;5059575;28;20489;-67
2020/12/26 07:29:25;;;;;;;1999.90;999.90;;;;;;;2.68;83.57;98667.41;5054727;28;20041;-67
2020/12/26 07:31:52;;;;;;;1999.90;999.90;;;;;;;2.58;83.16;98664.63;5042776;28;20056;-68
2020/12/26 07:34:39;;;;;;;1999.90;999.90;;;;;;;2.50;82.69;98662.41;5061381;28;20045;-67
2020/12/26 07:37:06;;;;;;;1999.90;999.90;;;;;;;2.05;84.65;98664.59;5056192;28;20053;-67
2020/12/26 07:39:32;;;;;;;1999.90;999.90;;;;;;;2.20;84.75;98669.31;5058751;28;20044;-66
2020/12/26 07:41:59;;;;;;;1999.90;999.90;;;;;;;2.21;84.06;98679.16;5030650;28;20044;-66
2020/12/26 07:44:28;;;;;;;1999.90;999.90;;;;;;;2.22;83.67;98678.91;5057708;28;20057;-66
2020/12/26 07:46:55;;;;;;;1999.90;999.90;;;;;;;2.56;83.20;98686.75;5062876;28;20106;-67
2020/12/26 07:49:23;;;;;;;1999.90;999.90;;;;;;;2.38;82.91;98674.38;5055988;28;20061;-67
2020/12/26 07:52:06;;;;;;;1999.90;999.90;;;;;;;2.16;83.79;98685.41;5055022;28;20465;-67
2020/12/26 07:54:34;;;;;;;1999.90;999.90;;;;;;;2.41;83.11;98682.03;5060253;28;20322;-67
2020/12/26 07:57:01;;;;;;;1999.90;999.90;;;;;;;2.69;82.31;98690.06;5062590;28;20055;-67
2020/12/26 07:59:27;;;;;;;1999.90;999.90;;;;;;;2.59;82.02;98699.03;5068598;28;20044;-66
2020/12/26 08:01:55;;;;;;;1999.90;999.90;;;;;;;2.41;82.25;98701.13;5052763;28;20040;-67
2020/12/26 08:04:22;;;;;;;1999.90;999.90;;;;;;;2.34;83.13;98700.53;5051903;28;20047;-67
2020/12/26 08:06:50;;;;;;;1999.90;999.90;;;;;;;2.53;82.95;98706.38;5049303;28;20051;-67
2020/12/26 08:09:18;;;;;;;1999.90;999.90;;;;;;;2.27;82.81;98708.13;5060111;28;20051;-67
2020/12/26 08:11:45;;;;;;;1999.90;999.90;;;;;;;1.88;84.45;98716.56;5056077;28;20052;-67
2020/12/26 08:14:14;;;;;;;1999.90;999.90;;;;;;;1.44;86.46;98716.69;5055212;28;20052;-66
2020/12/26 08:16:41;;;;;;;1999.90;999.90;;;;;;;1.41;86.14;98723.47;5062997;28;20109;-66
2020/12/26 08:19:08;;;;;;;1999.90;999.90;;;;;;;1.25;85.26;98730.69;5053400;28;20056;-67
2020/12/26 08:21:34;;;;;;;1999.90;999.90;;;;;;;1.15;85.87;98734.09;5049204;28;20136;-66
2020/12/26 08:24:03;;;;;;;1999.90;999.90;;;;;;;1.58;86.41;98731.56;5059277;28;20100;-66
2020/12/26 08:26:32;;;;;;;1999.90;999.90;;;;;;;2.06;83.31;98732.53;5060281;28;20053;-67
2020/12/26 08:29:01;;;;;;;1999.90;999.90;;;;;;;1.90;82.92;98730.75;5050481;28;20118;-66
2020/12/26 08:31:30;;;;;;;1999.90;999.90;;;;;;;1.54;82.68;98741.31;5058171;28;20049;-66
2020/12/26 08:34:09;;;;;;;1999.90;999.90;;;;;;;1.43;82.59;98745.84;5057459;28;20547;-66
2020/12/26 08:36:39;;;;;;;1999.90;999.90;;;;;;;1.67;82.98;98738.19;5062295;28;20048;-68
2020/12/26 08:39:08;;;;;;;1999.90;999.90;;;;;;;1.78;82.03;98739.09;5059072;28;20057;-66
2020/12/26 08:41:40;;;;;;;1999.90;999.90;;;;;;;1.33;82.57;98743.84;5057382;28;20045;-65
2020/12/26 08:44:11;;;;;;;1999.90;999.90;;;;;;;1.73;81.61;98748.06;5058359;28;20397;-67
2020/12/26 08:46:45;;;;;;;1999.90;999.90;;;;;;;1.46;80.03;98731.72;5049446;28;20049;-66
2020/12/26 08:49:13;;;;;;;1999.90;999.90;;;;;;;0.99;79.96;98746.69;5059909;28;20250;-66
2020/12/26 08:51:44;;;;;;;1999.90;999.90;;;;;;;1.34;79.65;98745.50;5062369;28;20132;-66
2020/12/26 08:54:18;;;;;;;1999.90;999.90;;;;;;;1.67;78.17;98740.91;5055527;28;20493;-67
2020/12/26 08:56:45;;;;;;;1999.90;999.90;;;;;;;1.67;77.45;98745.56;5056317;28;20125;-65
2020/12/26 08:59:12;;;;;;;1999.90;999.90;;;;;;;2.00;76.05;98740.94;5050896;28;20048;-65
2020/12/26 09:01:40;;;;;;;1999.90;999.90;;;;;;;2.18;75.39;98745.19;5050844;28;20045;-65
2020/12/26 09:04:15;;;;;;;1999.90;999.90;;;;;;;2.01;75.31;98753.47;5059413;28;20500;-65
2020/12/26 09:06:42;;;;;;;1999.90;999.90;;;;;;;1.44;76.52;98754.84;5062805;28;20049;-65
2020/12/26 09:09:19;;;;;;;1999.90;999.90;;;;;;;1.34;76.37;98750.94;5054264;28;20612;-64
2020/12/26 09:11:46;;;;;;;1999.90;999.90;;;;;;;1.55;77.36;98757.44;5047571;28;20485;-65
2020/12/26 09:14:21;;;;;;;1999.90;999.90;;;;;;;2.02;75.09;98761.41;5053700;28;20048;-65
2020/12/26 09:16:56;;;;;;;1999.90;999.90;;;;;;;1.72;75.28;98761.94;5053125;28;20060;-64
2020/12/26 09:19:22;;;;;;;1999.90;999.90;;;;;;;2.28;73.85;98753.44;5056239;28;20041;-65
2020/12/26 09:21:48;;;;;;;1999.90;999.90;;;;;;;2.74;72.66;98755.63;5056230;28;20109;-66
2020/12/26 09:24:19;;;;;;;1999.90;999.90;;;;;;;1.99;73.17;98751.00;5062929;28;20435;-65
2020/12/26 09:26:46;;;;;;;1999.90;999.90;;;;;;;1.93;73.30;98761.03;5061047;28;20048;-65
2020/12/26 09:29:42;;;;;;;1999.90;999.90;;;;;;;2.08;73.64;98770.47;5051750;28;20364;-66
2020/12/26 09:32:08;;;;;;;1999.90;999.90;;;;;;;2.18;72.92;98775.19;5051305;28;20462;-65
2020/12/26 09:34:37;;;;;;;1999.90;999.90;;;;;;;2.33;72.81;98775.31;5047187;28;20254;-65
2020/12/26 09:37:05;;;;;;;1999.90;999.90;;;;;;;2.10;73.03;98773.78;5048113;28;20531;-65
2020/12/26 09:39:32;;;;;;;1999.90;999.90;;;;;;;2.01;73.71;98778.03;5055321;28;20194;-65
2020/12/26 09:41:58;;;;;;;1999.90;999.90;;;;;;;2.14;72.93;98784.97;5050492;28;20126;-65
2020/12/26 09:44:25;;;;;;;1999.90;999.90;;;;;;;1.42;73.21;98795.16;5050544;28;20082;-67
2020/12/26 09:46:59;;;;;;;1999.90;999.90;;;;;;;1.29;74.66;98775.38;5058268;28;20098;-66
2020/12/26 09:49:26;;;;;;;1999.90;999.90;;;;;;;1.17;74.74;98778.25;5055279;28;20052;-66
2020/12/26 09:51:53;;;;;;;1999.90;999.90;;;;;;;1.61;73.68;98782.84;5058125;28;20056;-66
2020/12/26 09:54:19;;;;;;;1999.90;999.90;;;;;;;1.89;73.55;98784.50;5055885;28;20060;-66
2020/12/26 09:56:45;;;;;;;1999.90;999.90;;;;;;;2.44;72.94;98782.50;5056306;28;20053;-66
2020/12/26 09:59:11;;;;;;;1999.90;999.90;;;;;;;1.47;73.80;98787.84;5050961;28;20362;-65
2020/12/26 10:01:39;;;;;;;1999.90;999.90;;;;;;;1.29;74.86;98780.84;5057943;28;20357;-66
2020/12/26 10:04:05;;;;;;;1999.90;999.90;;;;;;;1.45;74.29;98784.56;5054376;28;20056;-65
2020/12/26 10:06:31;;;;;;;1999.90;999.90;;;;;;;2.04;73.71;98774.78;5061227;28;20094;-66
2020/12/26 10:08:58;;;;;;;1999.90;999.90;;;;;;;2.11;73.56;98781.69;5059966;28;20455;-66
2020/12/26 10:11:24;;;;;;;1999.90;999.90;;;;;;;1.53;74.03;98780.56;5058053;28;20048;-65
2020/12/26 10:13:51;;;;;;;1999.90;999.90;;;;;;;1.80;74.73;98780.56;5063573;28;20123;-66
2020/12/26 10:16:18;;;;;;;1999.90;999.90;;;;;;;1.67;74.30;98781.81;5053674;28;20099;-66
2020/12/26 10:18:45;;;;;;;1999.90;999.90;;;;;;;1.66;74.53;98784.78;5054033;28;20055;-66
2020/12/26 10:21:17;;;;;;;1999.90;999.90;;;;;;;1.74;73.91;98776.97;5049507;28;20053;-66
2020/12/26 10:23:46;;;;;;;1999.90;999.90;;;;;;;1.74;74.38;98779.72;5063388;28;20048;-65
2020/12/26 10:26:12;;;;;;;1999.90;999.90;;;;;;;2.11;73.27;98770.78;5047753;28;20061;-66
2020/12/26 10:28:39;;;;;;;1999.90;999.90;;;;;;;1.42;74.05;98776.91;5047503;28;20452;-65
2020/12/26 10:31:05;;;;;;;1999.90;999.90;;;;;;;1.36;73.76;98781.47;5049439;28;20049;-64
2020/12/26 10:33:31;;;;;;;1999.90;999.90;;;;;;;1.39;74.41;98777.41;5065005;28;20237;-65
2020/12/26 10:35:57;;;;;;;1999.90;999.90;;;;;;;1.63;73.62;98774.41;5070755;28;20550;-66
2020/12/26 10:38:24;;;;;;;1999.90;999.90;;;;;;;1.47;73.68;98771.50;5077880;28;20076;-66
2020/12/26 10:40:50;;;;;;;1999.90;999.90;;;;;;;1.51;73.37;98769.91;5075436;28;20086;-66
2020/12/26 10:43:17;;;;;;;1999.90;999.90;;;;;;;1.86;72.56;98767.81;5075014;28;20044;-66
2020/12/26 10:45:43;;;;;;;1999.90;999.90;;;;;;;2.05;71.90;98777.25;5071210;28;20102;-66
2020/12/26 10:48:09;;;;;;;1999.90;999.90;;;;;;;2.13;72.13;98772.41;5064948;28;20052;-66
2020/12/26 10:50:36;;;;;;;1999.90;999.90;;;;;;;1.83;73.13;98768.31;5053665;28;20049;-65
2020/12/26 10:53:02;;;;;;;1999.90;999.90;;;;;;;1.93;73.03;98769.22;5052382;28;20114;-66
2020/12/26 10:55:28;;;;;;;1999.90;999.90;;;;;;;2.05;72.93;98765.53;5048879;28;20523;-66
2020/12/26 10:57:54;;;;;;;1999.90;999.90;;;;;;;2.31;72.32;98758.38;5053484;28;20059;-66
2020/12/26 11:00:20;;;;;;;1999.90;999.90;;;;;;;1.96;71.51;98762.44;5048499;28;20052;-65
2020/12/26 11:02:47;;;;;;;1999.90;999.90;;;;;;;1.59;73.35;98768.63;5049682;28;20134;-66
2020/12/26 11:05:13;;;;;;;1999.90;999.90;;;;;;;1.90;72.87;98766.22;5053522;28;20123;-66
2020/12/26 11:07:41;;;;;;;1999.90;999.90;;;;;;;2.09;71.76;98761.19;5049030;28;20102;-66